Time;durP1;ratioP1;P1;durP2;ratioP2;P2;SDS_P1;SDS_P2;PMS_P1;PMS_P2;Temp;Humidity;BMP_temperature;BMP_pressure;BME280_temperature;BME280_humidity;BME280_pressure;Samples;Min_cycle;Max_cycle;Signal;HPM_P1;HPM_P2
2021/06/21 00:00:00;;;;;;;7.55;4.38;;;18.40;99.00;;;;;;4799385;29;20609;-75
2021/06/21 00:02:27;;;;;;;11.45;7.40;;;18.30;99.20;;;;;;4785313;29;20512;-76
2021/06/21 00:04:54;;;;;;;11.30;6.90;;;18.20;99.50;;;;;;4804596;29;20042;-75
2021/06/21 00:07:21;;;;;;;8.43;6.38;;;18.00;99.70;;;;;;4824385;29;20506;-76
2021/06/21 00:09:49;;;;;;;6.38;5.03;;;17.80;99.90;;;;;;4813471;29;20405;-75
2021/06/21 00:12:17;;;;;;;8.80;6.97;;;17.70;99.90;;;;;;4811606;29;20043;-75
2021/06/21 00:14:45;;;;;;;9.80;8.10;;;17.60;99.90;;;;;;4807545;29;20046;-89
2021/06/21 00:17:14;;;;;;;9.13;6.05;;;17.60;99.90;;;;;;4820877;29;20057;-76
2021/06/21 00:19:41;;;;;;;9.43;8.00;;;17.50;99.90;;;;;;4815660;29;20034;-76
2021/06/21 00:22:08;;;;;;;8.20;5.75;;;17.40;99.90;;;;;;4822784;29;20058;-76
2021/06/21 00:24:34;;;;;;;14.65;9.10;;;17.40;99.90;;;;;;4815698;29;20477;-76
2021/06/21 00:27:09;;;;;;;8.13;6.60;;;17.30;99.90;;;;;;4807985;29;20059;-75
2021/06/21 00:29:35;;;;;;;13.98;11.00;;;17.30;99.90;;;;;;4805313;29;20042;-76
2021/06/21 00:32:02;;;;;;;10.38;7.78;;;17.20;99.90;;;;;;4810543;29;20053;-75
2021/06/21 00:34:29;;;;;;;14.93;11.10;;;17.30;99.90;;;;;;4809012;29;20034;-76
2021/06/21 00:36:55;;;;;;;11.02;8.32;;;17.20;99.90;;;;;;4799589;29;20489;-75
2021/06/21 00:39:22;;;;;;;11.98;9.57;;;17.20;99.90;;;;;;4815626;29;20053;-91
2021/06/21 00:41:48;;;;;;;11.90;9.07;;;17.10;99.90;;;;;;4820953;29;20446;-91
2021/06/21 00:44:15;;;;;;;8.98;8.05;;;17.10;99.90;;;;;;4803752;29;20050;-91
2021/06/21 00:46:41;;;;;;;14.20;9.00;;;17.10;99.90;;;;;;4806190;29;20054;-90
2021/06/21 00:49:08;;;;;;;12.18;9.32;;;17.20;99.90;;;;;;4810673;29;20050;-90
2021/06/21 00:51:35;;;;;;;10.65;9.13;;;17.20;99.90;;;;;;4816482;29;20042;-91
2021/06/21 00:54:04;;;;;;;14.68;10.70;;;17.10;99.90;;;;;;4819176;29;20031;-89
2021/06/21 00:56:31;;;;;;;13.52;9.57;;;17.10;99.90;;;;;;4812167;29;20050;-75
2021/06/21 00:59:03;;;;;;;10.20;7.05;;;17.00;99.90;;;;;;4808246;29;20406;-75
2021/06/21 01:01:30;;;;;;;13.30;9.73;;;16.90;99.90;;;;;;4809719;29;20045;-75
2021/06/21 01:03:59;;;;;;;12.02;9.48;;;16.80;99.90;;;;;;4822424;29;20042;-74
2021/06/21 01:06:26;;;;;;;14.02;10.10;;;16.70;99.90;;;;;;4807140;29;20030;-74
2021/06/21 01:08:53;;;;;;;14.15;12.38;;;16.60;99.90;;;;;;4822852;29;20077;-75
2021/06/21 01:11:19;;;;;;;12.18;9.98;;;16.50;99.90;;;;;;4826785;29;20047;-89
2021/06/21 01:14:00;;;;;;;16.20;12.75;;;16.40;99.90;;;;;;4815197;29;20050;-90
2021/06/21 01:16:34;;;;;;;9.88;8.98;;;16.30;99.90;;;;;;4810926;29;20401;-90
2021/06/21 01:19:36;;;;;;;15.60;12.27;;;16.20;99.90;;;;;;4813061;29;20050;-74
2021/06/21 01:22:43;;;;;;;15.55;13.82;;;16.20;99.90;;;;;;4802566;29;20435;-74
2021/06/21 01:25:18;;;;;;;13.27;11.45;;;16.10;99.90;;;;;;4803296;29;20050;-74
2021/06/21 01:28:00;;;;;;;17.27;13.48;;;16.00;99.90;;;;;;4810283;29;20057;-74
2021/06/21 01:30:46;;;;;;;20.00;14.13;;;16.00;99.90;;;;;;4828096;29;20050;-74
2021/06/21 01:33:14;;;;;;;12.70;10.05;;;16.00;99.90;;;;;;4828565;29;20049;-75
2021/06/21 01:35:47;;;;;;;12.95;11.00;;;15.90;99.90;;;;;;4816441;29;20049;-74
2021/06/21 01:38:22;;;;;;;13.43;11.05;;;15.90;99.90;;;;;;4821092;29;20038;-74
2021/06/21 01:40:53;;;;;;;13.98;12.23;;;15.90;99.90;;;;;;4812969;29;20039;-74
2021/06/21 01:43:25;;;;;;;13.70;10.68;;;15.90;99.90;;;;;;4813091;29;20057;-74
2021/06/21 01:45:52;;;;;;;11.45;10.35;;;15.80;99.90;;;;;;4818040;29;20917;-74
2021/06/21 01:48:23;;;;;;;13.70;11.15;;;15.80;99.90;;;;;;4791910;29;20077;-74
2021/06/21 01:50:54;;;;;;;19.77;13.30;;;15.80;99.90;;;;;;4816767;29;20053;-75
2021/06/21 01:53:24;;;;;;;11.93;10.18;;;15.80;99.90;;;;;;4819911;29;20065;-74
2021/06/21 01:56:02;;;;;;;11.18;9.75;;;15.70;99.90;;;;;;4834521;29;20049;-74
2021/06/21 01:58:32;;;;;;;11.02;9.88;;;15.70;99.90;;;;;;4813459;29;20047;-74
2021/06/21 02:01:00;;;;;;;10.82;9.18;;;15.60;99.90;;;;;;4818067;29;20038;-74
2021/06/21 02:03:28;;;;;;;9.48;8.57;;;15.60;99.90;;;;;;4797777;29;20046;-74
2021/06/21 02:05:55;;;;;;;10.20;8.20;;;15.50;99.90;;;;;;4814094;29;20395;-74
2021/06/21 02:08:23;;;;;;;9.52;8.05;;;15.50;99.90;;;;;;4794676;29;20042;-74
2021/06/21 02:10:53;;;;;;;8.77;7.78;;;15.50;99.90;;;;;;4802220;29;20051;-74
2021/06/21 02:13:22;;;;;;;15.20;10.50;;;15.50;99.90;;;;;;4798518;29;20054;-74
2021/06/21 02:15:49;;;;;;;9.38;8.05;;;15.40;99.90;;;;;;4801000;29;20045;-75
2021/06/21 02:18:20;;;;;;;10.52;9.45;;;15.40;99.90;;;;;;4795059;29;20066;-74
2021/06/21 02:20:48;;;;;;;7.18;5.88;;;15.30;99.90;;;;;;4809321;29;20459;-75
2021/06/21 02:23:17;;;;;;;11.20;7.97;;;15.30;99.90;;;;;;4810340;29;20046;-75
2021/06/21 02:25:47;;;;;;;6.70;5.95;;;15.30;99.90;;;;;;4801152;29;20042;-74
2021/06/21 02:28:16;;;;;;;7.95;5.63;;;15.20;99.90;;;;;;4797035;29;20049;-75
2021/06/21 02:30:43;;;;;;;9.65;7.18;;;15.20;99.90;;;;;;4819925;29;20509;-75
2021/06/21 02:33:11;;;;;;;9.52;7.43;;;15.10;99.90;;;;;;4803362;29;20061;-75
2021/06/21 02:35:38;;;;;;;10.77;7.50;;;15.10;99.90;;;;;;4807898;29;20398;-74
2021/06/21 02:38:04;;;;;;;7.20;6.15;;;15.00;99.90;;;;;;4806558;29;20054;-75
2021/06/21 02:40:31;;;;;;;9.45;7.30;;;15.00;99.90;;;;;;4773222;29;20034;-75
2021/06/21 02:42:57;;;;;;;8.48;7.00;;;15.00;99.90;;;;;;4818042;29;20069;-75
2021/06/21 02:45:24;;;;;;;8.13;5.97;;;15.00;99.90;;;;;;4813771;29;20058;-77
2021/06/21 02:47:51;;;;;;;7.13;5.10;;;15.00;99.90;;;;;;4813416;29;20425;-75
2021/06/21 02:50:18;;;;;;;8.77;6.78;;;15.00;99.90;;;;;;4808939;29;20447;-75
2021/06/21 02:53:08;;;;;;;8.00;5.78;;;14.90;99.90;;;;;;4814334;29;20063;-75
2021/06/21 02:55:56;;;;;;;8.52;6.38;;;14.90;99.90;;;;;;4797846;29;20051;-75
2021/06/21 02:58:29;;;;;;;7.22;5.72;;;14.90;99.90;;;;;;4799433;29;20046;-75
2021/06/21 03:01:01;;;;;;;6.32;4.43;;;14.80;99.90;;;;;;4815665;29;20046;-75
2021/06/21 03:03:31;;;;;;;7.00;4.68;;;14.70;99.90;;;;;;4817746;29;20064;-76
2021/06/21 03:05:59;;;;;;;12.35;5.57;;;14.70;99.90;;;;;;4815950;29;20509;-75
2021/06/21 03:08:28;;;;;;;3.97;3.67;;;14.60;99.90;;;;;;4813405;29;20051;-76
2021/06/21 03:10:57;;;;;;;7.50;4.97;;;14.60;99.90;;;;;;4812328;29;20049;-75
2021/06/21 03:13:25;;;;;;;4.97;4.00;;;14.60;99.90;;;;;;4804543;29;20043;-76
2021/06/21 03:15:54;;;;;;;7.45;4.43;;;14.50;99.90;;;;;;4817971;29;20045;-76
2021/06/21 03:18:22;;;;;;;5.45;4.65;;;14.50;99.90;;;;;;4801142;29;20487;-76
2021/06/21 03:20:54;;;;;;;7.20;5.60;;;14.40;99.90;;;;;;4816629;29;20513;-76
2021/06/21 03:23:26;;;;;;;6.22;4.35;;;14.40;99.90;;;;;;4820827;29;20831;-77
2021/06/21 03:25:55;;;;;;;5.72;4.88;;;14.40;99.90;;;;;;4821126;29;20050;-75
2021/06/21 03:28:23;;;;;;;5.50;4.20;;;14.30;99.90;;;;;;4814384;29;20054;-76
2021/06/21 03:31:03;;;;;;;6.25;4.95;;;14.30;99.90;;;;;;4802174;29;20054;-77
2021/06/21 03:33:30;;;;;;;8.52;5.28;;;14.30;99.90;;;;;;4803647;29;20046;-76
2021/06/21 03:35:57;;;;;;;6.35;4.82;;;14.20;99.90;;;;;;4823666;29;20050;-76
2021/06/21 03:38:26;;;;;;;5.88;3.88;;;14.20;99.90;;;;;;4803639;29;20034;-76
2021/06/21 03:40:57;;;;;;;5.43;4.20;;;14.20;99.90;;;;;;4818936;29;20422;-76
2021/06/21 03:43:25;;;;;;;4.97;3.60;;;14.20;99.90;;;;;;4819437;29;20050;-76
2021/06/21 03:45:54;;;;;;;3.92;2.88;;;14.10;99.90;;;;;;4807691;29;20058;-83
2021/06/21 03:48:22;;;;;;;3.67;2.72;;;14.10;99.90;;;;;;4819851;29;20418;-82
2021/06/21 03:50:48;;;;;;;6.03;4.13;;;14.20;99.90;;;;;;4811963;29;20066;-83
2021/06/21 03:53:17;;;;;;;9.63;4.68;;;14.20;99.90;;;;;;4842308;29;20050;-81
2021/06/21 03:55:44;;;;;;;4.05;3.50;;;14.20;99.90;;;;;;4803919;29;20038;-82
2021/06/21 03:58:11;;;;;;;6.53;4.03;;;14.10;99.90;;;;;;4821708;29;20070;-82
2021/06/21 04:00:38;;;;;;;4.40;3.38;;;14.10;99.90;;;;;;4809076;29;20069;-82
2021/06/21 04:03:06;;;;;;;4.57;3.20;;;14.10;99.90;;;;;;4806783;29;20537;-81
2021/06/21 04:05:36;;;;;;;3.13;2.58;;;14.10;99.90;;;;;;4794818;29;20058;-80
2021/06/21 04:08:08;;;;;;;12.30;3.78;;;14.10;99.90;;;;;;4814332;29;20046;-82
2021/06/21 04:10:36;;;;;;;7.50;6.55;;;14.10;99.90;;;;;;4817635;29;20053;-87
2021/06/21 04:13:04;;;;;;;10.10;6.93;;;14.10;99.90;;;;;;4813755;29;20042;-83
2021/06/21 04:15:31;;;;;;;6.82;4.53;;;14.10;99.90;;;;;;4823107;29;20521;-82
2021/06/21 04:18:17;;;;;;;9.57;3.97;;;14.00;99.90;;;;;;4811325;29;20038;-80
2021/06/21 04:20:45;;;;;;;7.10;4.13;;;14.00;99.90;;;;;;4820573;29;20042;-81
2021/06/21 04:23:13;;;;;;;4.28;3.05;;;14.00;99.90;;;;;;4805349;29;20406;-80
2021/06/21 04:25:40;;;;;;;6.07;3.13;;;14.00;99.90;;;;;;4815122;29;20038;-80
2021/06/21 04:28:07;;;;;;;3.22;2.35;;;14.00;99.90;;;;;;4813774;29;20050;-80
2021/06/21 04:30:34;;;;;;;5.57;2.85;;;14.00;99.90;;;;;;4792170;29;20046;-81
2021/06/21 04:33:01;;;;;;;4.30;2.60;;;14.00;99.90;;;;;;4809355;29;20484;-81
2021/06/21 04:35:28;;;;;;;3.53;2.25;;;14.00;99.90;;;;;;4793044;29;20049;-80
2021/06/21 04:37:56;;;;;;;6.43;2.88;;;14.00;99.90;;;;;;4812741;29;20543;-81
2021/06/21 04:40:26;;;;;;;4.90;3.30;;;14.00;99.90;;;;;;4813269;29;20055;-79
2021/06/21 04:42:52;;;;;;;3.67;2.92;;;14.00;99.90;;;;;;4813949;29;20045;-80
2021/06/21 04:45:19;;;;;;;5.32;2.97;;;13.90;99.90;;;;;;4813402;29;20055;-80
2021/06/21 04:47:46;;;;;;;6.43;3.78;;;14.00;99.90;;;;;;4818246;29;20055;-81
2021/06/21 04:50:14;;;;;;;5.55;3.10;;;13.90;99.90;;;;;;4812514;29;20134;-82
2021/06/21 04:52:43;;;;;;;5.20;3.70;;;14.00;99.90;;;;;;4814988;29;20058;-80
2021/06/21 04:55:11;;;;;;;4.53;3.20;;;14.00;99.90;;;;;;4833448;29;20401;-81
2021/06/21 04:57:38;;;;;;;8.27;4.72;;;14.00;99.90;;;;;;4797543;29;20074;-81
2021/06/21 05:00:11;;;;;;;4.90;2.92;;;14.00;99.90;;;;;;4816320;29;20061;-80
2021/06/21 05:02:38;;;;;;;7.32;4.05;;;14.00;99.90;;;;;;4815928;29;20034;-80
2021/06/21 05:05:05;;;;;;;3.35;2.97;;;14.00;99.90;;;;;;4819837;29;20048;-75
2021/06/21 05:07:32;;;;;;;5.53;3.22;;;14.00;99.90;;;;;;4812331;29;20049;-76
2021/06/21 05:09:58;;;;;;;4.82;2.97;;;14.00;99.90;;;;;;4804364;29;20038;-76
2021/06/21 05:12:25;;;;;;;4.15;2.35;;;14.00;99.90;;;;;;4793713;29;20035;-76
2021/06/21 05:14:51;;;;;;;2.75;2.45;;;14.00;99.90;;;;;;4805828;29;20509;-79
2021/06/21 05:17:18;;;;;;;3.08;2.33;;;14.00;99.90;;;;;;4814788;29;20419;-80
2021/06/21 05:19:45;;;;;;;3.03;2.30;;;14.00;99.90;;;;;;4807053;29;20053;-81
2021/06/21 05:22:11;;;;;;;2.95;2.00;;;14.00;99.90;;;;;;4809016;29;20059;-81
2021/06/21 05:24:38;;;;;;;3.10;1.88;;;14.00;99.90;;;;;;4794087;29;20034;-75
2021/06/21 05:27:05;;;;;;;3.58;2.00;;;14.00;99.90;;;;;;4803361;29;20046;-80
2021/06/21 05:29:32;;;;;;;2.40;1.63;;;14.00;99.90;;;;;;4809809;29;20058;-75
2021/06/21 05:32:03;;;;;;;2.88;2.22;;;14.10;99.90;;;;;;4801868;29;20152;-80
2021/06/21 05:34:30;;;;;;;3.38;1.98;;;14.10;99.90;;;;;;4813203;29;20039;-75
2021/06/21 05:36:56;;;;;;;3.03;2.05;;;14.00;99.90;;;;;;4802228;29;20944;-75
2021/06/21 05:39:23;;;;;;;1.90;1.52;;;14.00;99.90;;;;;;4811584;29;21258;-75
2021/06/21 05:41:50;;;;;;;3.00;1.60;;;14.00;99.90;;;;;;4821357;29;20049;-76
2021/06/21 05:44:16;;;;;;;2.00;1.63;;;14.00;99.90;;;;;;4814469;29;20050;-81
2021/06/21 05:46:43;;;;;;;5.20;1.52;;;14.00;99.90;;;;;;4816577;29;20065;-80
2021/06/21 05:49:11;;;;;;;2.15;1.33;;;14.00;99.90;;;;;;4813357;29;20077;-80
2021/06/21 05:51:38;;;;;;;2.50;1.30;;;14.00;99.90;;;;;;4812100;29;20848;-80
2021/06/21 05:54:04;;;;;;;2.20;1.40;;;14.00;99.90;;;;;;4818328;29;20046;-76
2021/06/21 05:56:31;;;;;;;2.42;1.48;;;14.00;99.90;;;;;;4810770;29;20042;-76
2021/06/21 05:58:58;;;;;;;2.30;1.77;;;14.00;99.90;;;;;;4795587;29;20047;-76
2021/06/21 06:01:25;;;;;;;3.22;1.58;;;14.00;99.90;;;;;;4790602;29;20047;-80
2021/06/21 06:03:51;;;;;;;1.85;1.40;;;14.00;99.90;;;;;;4812649;29;20073;-81
2021/06/21 06:06:19;;;;;;;3.22;1.92;;;14.00;99.90;;;;;;4795779;29;20371;-80
2021/06/21 06:08:46;;;;;;;2.28;1.80;;;14.00;99.90;;;;;;4802329;29;20080;-81
2021/06/21 06:11:12;;;;;;;2.58;1.67;;;14.00;99.90;;;;;;4818258;29;20419;-80
2021/06/21 06:13:39;;;;;;;2.88;1.45;;;14.00;99.90;;;;;;4817233;29;20550;-80
2021/06/21 06:16:06;;;;;;;2.80;1.58;;;14.00;99.90;;;;;;4794283;29;20050;-81
2021/06/21 06:18:33;;;;;;;3.92;1.33;;;14.00;99.90;;;;;;4814921;29;20038;-79
2021/06/21 06:20:59;;;;;;;1.98;1.67;;;14.00;99.90;;;;;;4817463;29;20049;-80
2021/06/21 06:23:26;;;;;;;2.28;1.70;;;14.00;99.90;;;;;;4816226;29;20051;-79
2021/06/21 06:25:53;;;;;;;2.85;1.58;;;14.00;99.90;;;;;;4812023;29;20057;-80
2021/06/21 06:28:19;;;;;;;2.28;1.50;;;14.00;99.90;;;;;;4815115;29;20043;-79
2021/06/21 06:30:46;;;;;;;2.47;1.20;;;14.00;99.90;;;;;;4819478;29;20081;-81
2021/06/21 06:33:12;;;;;;;3.70;1.70;;;14.10;99.90;;;;;;4810433;29;20051;-75
2021/06/21 06:35:39;;;;;;;2.22;1.33;;;14.10;99.90;;;;;;4815968;29;20034;-75
2021/06/21 06:38:08;;;;;;;2.22;1.40;;;14.10;99.90;;;;;;4802438;29;20498;-75
2021/06/21 06:40:34;;;;;;;2.03;1.17;;;14.10;99.90;;;;;;4802232;29;20037;-75
2021/06/21 06:43:01;;;;;;;1.40;1.00;;;14.10;99.90;;;;;;4833005;29;20046;-75
2021/06/21 06:45:27;;;;;;;2.13;1.17;;;14.10;99.90;;;;;;4817732;29;20043;-75
2021/06/21 06:47:54;;;;;;;1.58;1.02;;;14.10;99.90;;;;;;4786939;29;20047;-75
2021/06/21 06:50:20;;;;;;;2.00;1.08;;;14.10;99.90;;;;;;4799817;29;20428;-75
2021/06/21 06:52:50;;;;;;;2.38;1.17;;;14.20;99.90;;;;;;4824052;29;20050;-79
2021/06/21 06:58:02;;;;;;;1.80;1.13;;;14.20;99.90;;;;;;4816815;29;20441;-75
2021/06/21 07:00:28;;;;;;;3.42;1.20;;;14.30;99.90;;;;;;4819917;29;20631;-75
2021/06/21 07:02:55;;;;;;;2.58;1.10;;;14.20;99.90;;;;;;4825418;29;20054;-75
2021/06/21 07:05:21;;;;;;;2.20;1.27;;;14.20;99.90;;;;;;4820190;29;20050;-75
2021/06/21 07:07:48;;;;;;;2.60;1.45;;;14.20;99.90;;;;;;4821108;29;20057;-75
2021/06/21 07:10:14;;;;;;;4.00;1.55;;;14.20;99.90;;;;;;4800397;29;20047;-74
2021/06/21 07:12:41;;;;;;;2.28;1.38;;;14.20;99.90;;;;;;4822027;29;20046;-75
2021/06/21 07:15:08;;;;;;;3.17;0.98;;;14.20;99.90;;;;;;4823880;29;20501;-77
2021/06/21 07:17:34;;;;;;;2.05;1.15;;;14.20;99.90;;;;;;4819918;29;20042;-75
2021/06/21 07:20:02;;;;;;;1.92;0.95;;;14.30;99.90;;;;;;4809264;29;20038;-75
2021/06/21 07:22:28;;;;;;;1.88;1.00;;;14.20;99.90;;;;;;4838953;29;20030;-75
2021/06/21 07:24:55;;;;;;;1.50;1.00;;;14.30;99.90;;;;;;4817008;29;20058;-74
2021/06/21 07:27:22;;;;;;;2.00;1.30;;;14.30;99.90;;;;;;4831246;29;20049;-74
2021/06/21 07:29:48;;;;;;;1.40;1.00;;;14.30;99.90;;;;;;4818938;29;20049;-75
2021/06/21 07:32:15;;;;;;;1.95;1.15;;;14.40;99.90;;;;;;4808423;29;20047;-72
2021/06/21 07:34:42;;;;;;;2.45;1.38;;;14.30;99.90;;;;;;4787049;29;20053;-73
2021/06/21 07:37:09;;;;;;;1.23;1.00;;;14.40;99.90;;;;;;4816826;29;20505;-72
2021/06/21 07:39:36;;;;;;;2.15;1.10;;;14.30;99.90;;;;;;4793693;29;20070;-73
2021/06/21 07:42:03;;;;;;;1.75;1.20;;;14.30;99.90;;;;;;4812073;29;20043;-74
2021/06/21 07:44:30;;;;;;;2.55;1.58;;;14.30;99.90;;;;;;4806910;29;20418;-74
2021/06/21 07:46:57;;;;;;;3.25;1.52;;;14.40;99.90;;;;;;4806678;29;20491;-76
2021/06/21 07:49:23;;;;;;;2.38;1.48;;;14.40;99.90;;;;;;4808721;29;20046;-77
2021/06/21 07:51:50;;;;;;;3.22;1.70;;;14.40;99.90;;;;;;4799837;29;20042;-76
2021/06/21 07:54:19;;;;;;;2.03;1.65;;;14.40;99.90;;;;;;4811827;29;20042;-76
2021/06/21 07:56:45;;;;;;;2.45;1.80;;;14.50;99.90;;;;;;4800701;29;20085;-76
2021/06/21 07:59:13;;;;;;;1.85;1.50;;;14.50;99.90;;;;;;4815406;29;20050;-76
2021/06/21 08:01:39;;;;;;;1.83;1.30;;;14.50;99.90;;;;;;4787317;29;20050;-77
2021/06/21 08:04:07;;;;;;;2.33;1.45;;;14.50;99.90;;;;;;4787968;29;20038;-76
2021/06/21 08:06:33;;;;;;;2.70;1.27;;;14.50;99.90;;;;;;4786744;29;20509;-76
2021/06/21 08:09:00;;;;;;;2.05;1.20;;;14.50;99.90;;;;;;4812540;29;20039;-76
2021/06/21 08:11:26;;;;;;;2.00;1.30;;;14.50;99.90;;;;;;4813052;29;20042;-76
2021/06/21 08:13:57;;;;;;;2.55;2.03;;;14.50;99.90;;;;;;4827469;29;20069;-76
2021/06/21 08:16:23;;;;;;;2.40;1.73;;;14.50;99.90;;;;;;4816659;29;20046;-77
2021/06/21 08:18:50;;;;;;;1.73;1.38;;;14.50;99.90;;;;;;4799914;29;20050;-76
2021/06/21 08:21:16;;;;;;;1.73;1.17;;;14.60;99.90;;;;;;4815792;29;20043;-76
2021/06/21 08:23:43;;;;;;;2.38;1.70;;;14.50;99.90;;;;;;4816854;29;20494;-74
2021/06/21 08:26:10;;;;;;;1.67;1.52;;;14.50;99.90;;;;;;4817575;29;20049;-75
2021/06/21 08:28:37;;;;;;;3.00;1.98;;;14.50;99.90;;;;;;4785221;29;20049;-76
2021/06/21 08:31:03;;;;;;;3.05;2.10;;;14.50;99.90;;;;;;4789747;29;20038;-76
2021/06/21 08:33:30;;;;;;;2.60;2.40;;;14.50;99.90;;;;;;4812685;29;20038;-76
2021/06/21 08:35:57;;;;;;;2.78;2.13;;;14.50;99.90;;;;;;4815036;29;20383;-76
2021/06/21 08:38:23;;;;;;;2.47;2.05;;;14.50;99.90;;;;;;4813987;29;20035;-76
2021/06/21 08:40:50;;;;;;;2.95;1.95;;;14.60;99.90;;;;;;4800067;29;20046;-77
2021/06/21 08:43:16;;;;;;;3.50;2.15;;;14.60;99.90;;;;;;4815858;29;20488;-76
2021/06/21 08:45:45;;;;;;;5.82;2.58;;;14.70;99.90;;;;;;4821930;29;20052;-75
2021/06/21 08:48:12;;;;;;;3.20;2.25;;;14.70;99.90;;;;;;4816520;29;20856;-76
2021/06/21 08:50:39;;;;;;;3.03;2.65;;;14.70;99.90;;;;;;4815925;29;20062;-75
2021/06/21 08:53:08;;;;;;;4.22;2.65;;;14.70;99.90;;;;;;4816128;29;20053;-76
2021/06/21 08:55:35;;;;;;;3.35;2.97;;;14.70;99.90;;;;;;4818317;29;20042;-76
2021/06/21 08:58:03;;;;;;;3.47;2.70;;;14.70;99.90;;;;;;4822693;29;20069;-75
2021/06/21 09:00:31;;;;;;;3.00;2.20;;;14.80;99.90;;;;;;4817306;29;20054;-75
2021/06/21 09:03:02;;;;;;;3.13;2.80;;;14.80;99.90;;;;;;4824417;29;20059;-76
2021/06/21 09:05:32;;;;;;;4.80;2.35;;;14.80;99.90;;;;;;4819701;29;20051;-75
2021/06/21 09:08:03;;;;;;;3.25;2.55;;;14.80;99.90;;;;;;4801835;29;20061;-75
2021/06/21 09:10:31;;;;;;;3.97;2.70;;;14.80;99.90;;;;;;4819630;29;20508;-75
2021/06/21 09:13:18;;;;;;;2.95;2.63;;;14.80;99.90;;;;;;4815905;29;20038;-75
2021/06/21 09:15:50;;;;;;;3.83;2.33;;;14.80;99.90;;;;;;4790034;29;20055;-76
2021/06/21 09:18:37;;;;;;;2.25;2.05;;;14.80;99.90;;;;;;4818306;29;20046;-75
2021/06/21 09:21:29;;;;;;;2.40;1.80;;;14.80;99.90;;;;;;4808922;29;20058;-76
2021/06/21 09:23:58;;;;;;;3.25;2.55;;;14.80;99.90;;;;;;4815924;29;20042;-76
2021/06/21 09:26:32;;;;;;;2.97;2.22;;;14.80;99.90;;;;;;4813930;29;20041;-75
2021/06/21 09:29:00;;;;;;;4.00;2.15;;;14.80;99.90;;;;;;4792862;29;20054;-75
2021/06/21 09:31:27;;;;;;;2.60;1.70;;;14.90;99.90;;;;;;4807523;29;20438;-78
2021/06/21 09:34:15;;;;;;;3.03;1.80;;;14.80;99.90;;;;;;4822293;29;20047;-80
2021/06/21 09:36:42;;;;;;;2.83;1.90;;;14.80;99.90;;;;;;4787605;29;20039;-80
2021/06/21 09:39:26;;;;;;;2.40;1.88;;;14.80;99.90;;;;;;4798773;29;20038;-81
2021/06/21 09:42:08;;;;;;;3.00;2.28;;;14.80;99.90;;;;;;4791797;29;20426;-81
2021/06/21 09:44:43;;;;;;;4.70;2.10;;;14.80;99.90;;;;;;4821880;29;20052;-79
2021/06/21 09:47:27;;;;;;;4.15;2.40;;;14.80;99.90;;;;;;4821745;29;20137;-78
2021/06/21 09:50:08;;;;;;;2.70;1.48;;;14.80;99.90;;;;;;4825083;29;20045;-78
2021/06/21 09:52:41;;;;;;;2.03;1.65;;;14.80;99.90;;;;;;4813132;29;20033;-81
2021/06/21 09:55:16;;;;;;;3.28;1.70;;;14.90;99.90;;;;;;4828255;29;20512;-80
2021/06/21 09:57:44;;;;;;;2.22;1.45;;;14.90;99.90;;;;;;4811510;29;20069;-80
2021/06/21 10:00:16;;;;;;;2.60;1.33;;;15.00;99.90;;;;;;4807568;29;20461;-80
2021/06/21 10:02:42;;;;;;;3.63;1.60;;;15.00;99.90;;;;;;4803634;29;20046;-81
2021/06/21 10:05:21;;;;;;;3.65;2.08;;;15.10;99.90;;;;;;4803130;29;20062;-80
2021/06/21 10:07:49;;;;;;;2.47;1.67;;;15.20;99.90;;;;;;4814730;29;20035;-78
2021/06/21 10:10:19;;;;;;;2.75;1.70;;;15.20;99.90;;;;;;4813405;29;20048;-79
2021/06/21 10:12:47;;;;;;;3.60;2.03;;;15.30;99.90;;;;;;4813545;29;20051;-80
2021/06/21 10:15:14;;;;;;;2.92;2.42;;;15.40;99.90;;;;;;4820754;29;20061;-81
2021/06/21 10:17:40;;;;;;;2.47;1.83;;;15.50;99.90;;;;;;4817420;29;20054;-81
2021/06/21 10:20:09;;;;;;;4.53;2.00;;;15.60;99.90;;;;;;4802411;29;20054;-82
2021/06/21 10:22:40;;;;;;;2.83;2.05;;;15.60;99.90;;;;;;4815645;29;20074;-81
2021/06/21 10:25:09;;;;;;;2.08;1.52;;;15.60;99.90;;;;;;4808304;29;20063;-80
2021/06/21 10:27:44;;;;;;;1.90;1.40;;;15.70;99.90;;;;;;4809836;29;20030;-80
2021/06/21 10:30:13;;;;;;;1.25;1.00;;;15.80;99.90;;;;;;4810020;29;20816;-80
2021/06/21 10:32:41;;;;;;;1.70;1.20;;;15.80;99.90;;;;;;4811607;29;20043;-78
2021/06/21 10:35:11;;;;;;;1.52;1.13;;;15.80;99.90;;;;;;4813978;29;20045;-78
2021/06/21 10:37:38;;;;;;;2.40;1.02;;;15.90;99.90;;;;;;4796737;29;20449;-78
2021/06/21 10:40:08;;;;;;;3.15;1.00;;;15.90;99.90;;;;;;4809850;29;20045;-78
2021/06/21 10:42:41;;;;;;;1.40;1.10;;;15.90;99.90;;;;;;4791383;29;20046;-78
2021/06/21 10:45:16;;;;;;;1.48;0.80;;;15.90;99.90;;;;;;4811196;29;20046;-78
2021/06/21 10:47:45;;;;;;;2.17;1.00;;;15.90;99.90;;;;;;4824924;29;20049;-79
2021/06/21 10:50:21;;;;;;;2.17;1.02;;;16.00;99.90;;;;;;4809416;29;20049;-78
2021/06/21 10:52:51;;;;;;;1.20;0.80;;;15.90;99.90;;;;;;4820291;29;20050;-79
2021/06/21 10:55:24;;;;;;;1.27;0.70;;;16.00;99.90;;;;;;4808822;29;20050;-78
2021/06/21 10:58:09;;;;;;;1.25;0.60;;;16.00;99.90;;;;;;4813122;29;20053;-78
2021/06/21 11:00:39;;;;;;;1.60;1.00;;;15.90;99.90;;;;;;4818997;29;20058;-78
2021/06/21 11:03:31;;;;;;;1.15;0.90;;;15.90;99.90;;;;;;4816069;29;20051;-77
2021/06/21 11:06:18;;;;;;;2.33;1.13;;;15.80;99.90;;;;;;4812243;29;20057;-76
2021/06/21 11:08:46;;;;;;;2.33;0.90;;;15.70;99.90;;;;;;4814254;29;20483;-76
2021/06/21 11:11:35;;;;;;;1.85;0.77;;;15.60;99.90;;;;;;4811023;29;20493;-76
2021/06/21 11:14:07;;;;;;;1.88;1.40;;;15.50;99.90;;;;;;4812138;29;20054;-75
2021/06/21 11:16:34;;;;;;;1.50;0.90;;;15.50;99.90;;;;;;4809423;29;20053;-76
2021/06/21 11:19:13;;;;;;;1.40;0.90;;;15.60;99.90;;;;;;4805563;29;20043;-76
2021/06/21 11:21:47;;;;;;;2.05;0.90;;;15.70;99.90;;;;;;4812221;29;20462;-76
2021/06/21 11:24:35;;;;;;;1.90;1.10;;;15.80;99.90;;;;;;4806736;29;20043;-76
2021/06/21 11:27:12;;;;;;;2.25;0.88;;;16.10;99.90;;;;;;4823652;29;21502;-76
2021/06/21 11:29:42;;;;;;;1.67;0.90;;;16.30;99.90;;;;;;4828850;29;20046;-77
2021/06/21 11:32:10;;;;;;;2.03;1.00;;;16.60;99.90;;;;;;4804765;29;20053;-77
2021/06/21 11:35:03;;;;;;;1.25;1.15;;;16.70;99.90;;;;;;4813237;29;20118;-77
2021/06/21 11:37:29;;;;;;;1.35;1.02;;;16.80;99.90;;;;;;4811936;29;20138;-76
2021/06/21 11:40:23;;;;;;;1.80;0.95;;;16.80;99.90;;;;;;4814448;29;20061;-77
2021/06/21 11:43:01;;;;;;;1.50;1.10;;;16.80;99.90;;;;;;4812880;29;20421;-76
2021/06/21 11:45:54;;;;;;;1.23;0.80;;;16.70;99.90;;;;;;4809519;29;20078;-78
2021/06/21 11:48:32;;;;;;;1.88;0.90;;;16.80;99.90;;;;;;4807895;29;20030;-77
2021/06/21 11:51:01;;;;;;;1.65;0.88;;;16.90;99.90;;;;;;4804943;29;20050;-77
2021/06/21 11:53:29;;;;;;;0.95;0.82;;;16.90;99.90;;;;;;4815463;29;20055;-77
2021/06/21 11:55:56;;;;;;;1.42;1.00;;;16.90;99.90;;;;;;4811787;29;20042;-77
2021/06/21 11:58:30;;;;;;;2.05;0.90;;;16.90;99.90;;;;;;4807454;29;20422;-75
2021/06/21 12:01:13;;;;;;;1.73;0.80;;;16.90;99.90;;;;;;4803408;29;20057;-75
2021/06/21 12:03:43;;;;;;;1.58;0.60;;;16.80;99.90;;;;;;4791041;29;20046;-75
2021/06/21 12:06:17;;;;;;;1.35;0.70;;;16.80;99.90;;;;;;4787383;29;20066;-77
2021/06/21 12:08:44;;;;;;;2.58;1.00;;;16.80;99.90;;;;;;4812038;29;20473;-79
2021/06/21 12:11:16;;;;;;;1.35;0.70;;;16.70;99.90;;;;;;4818513;29;20043;-81
2021/06/21 12:13:53;;;;;;;0.70;0.50;;;16.60;99.90;;;;;;4829233;29;20042;-76
2021/06/21 12:16:20;;;;;;;1.90;0.60;;;16.70;99.90;;;;;;4826350;29;20038;-80
2021/06/21 12:18:55;;;;;;;1.85;0.60;;;16.80;99.90;;;;;;4797160;29;20490;-80
2021/06/21 12:21:51;;;;;;;1.40;0.77;;;16.90;99.90;;;;;;4801207;29;20041;-80
2021/06/21 12:24:30;;;;;;;2.42;0.75;;;17.00;99.90;;;;;;4791196;29;20047;-80
2021/06/21 12:27:04;;;;;;;5.25;3.03;;;17.10;99.90;;;;;;4811965;29;21211;-83
2021/06/21 12:29:36;;;;;;;7.65;4.75;;;17.10;99.90;;;;;;4798392;29;20051;-81
2021/06/21 12:32:07;;;;;;;5.28;4.57;;;17.10;99.90;;;;;;4813330;29;20049;-81
2021/06/21 12:34:50;;;;;;;2.65;1.65;;;17.10;99.90;;;;;;4806745;29;20063;-80
2021/06/21 12:37:24;;;;;;;1.20;0.88;;;17.10;99.90;;;;;;4817476;29;20116;-83
2021/06/21 12:39:55;;;;;;;4.00;3.42;;;17.30;99.90;;;;;;4813321;29;20113;-83
2021/06/21 12:42:23;;;;;;;2.72;2.08;;;17.40;99.90;;;;;;4823632;29;20401;-82
2021/06/21 12:44:50;;;;;;;3.85;2.05;;;17.30;99.90;;;;;;4825212;29;20042;-83
2021/06/21 12:47:23;;;;;;;3.35;1.05;;;17.20;99.90;;;;;;4790888;29;20049;-83
2021/06/21 12:49:52;;;;;;;1.25;0.70;;;17.10;99.90;;;;;;4809055;29;20126;-75
2021/06/21 12:52:21;;;;;;;2.50;0.70;;;17.00;99.90;;;;;;4823269;29;20046;-80
2021/06/21 12:54:55;;;;;;;4.43;0.70;;;17.00;99.90;;;;;;4805811;29;20039;-82
2021/06/21 12:58:09;;;;;;;1.55;0.80;;;17.00;99.90;;;;;;4769585;29;20054;-86
2021/06/21 13:00:44;;;;;;;2.17;0.80;;;16.80;99.90;;;;;;4762905;29;20043;-85
2021/06/21 13:03:16;;;;;;;1.02;0.63;;;16.80;99.90;;;;;;4756182;29;20058;-85